Time;durP1;ratioP1;P1;durP2;ratioP2;P2;SDS_P1;SDS_P2;PMS_P1;PMS_P2;Temp;Humidity;BMP_temperature;BMP_pressure;BME280_temperature;BME280_humidity;BME280_pressure;Samples;Min_cycle;Max_cycle;Signal;HPM_P1;HPM_P2
2023/07/12 00:00:44;;;;;;;5.05;2.80;;;;;;;19.07;100.00;100501.19;4972448;28;20617;-48
2023/07/12 00:03:10;;;;;;;2.78;2.25;;;;;;;19.12;100.00;100471.81;4973087;28;20182;-48
2023/07/12 00:05:36;;;;;;;5.32;2.50;;;;;;;18.83;100.00;100483.13;4977796;28;20347;-47
2023/07/12 00:08:03;;;;;;;4.45;2.85;;;;;;;18.88;100.00;100474.63;4979739;28;20606;-48
2023/07/12 00:10:31;;;;;;;4.45;2.60;;;;;;;18.90;100.00;100462.66;4971626;28;20205;-52
2023/07/12 00:12:57;;;;;;;3.50;2.67;;;;;;;18.82;100.00;100459.66;4974938;28;20624;-47
2023/07/12 00:15:26;;;;;;;6.35;2.67;;;;;;;18.93;100.00;100461.53;4971482;28;20311;-48
2023/07/12 00:17:53;;;;;;;5.75;2.75;;;;;;;18.74;100.00;100446.69;4973470;28;20181;-48
2023/07/12 00:20:21;;;;;;;10.68;3.30;;;;;;;18.50;100.00;100452.19;4971057;28;20182;-47
2023/07/12 00:22:46;;;;;;;7.38;3.58;;;;;;;18.62;100.00;100449.50;4969055;28;20181;-48
2023/07/12 00:25:14;;;;;;;4.80;3.08;;;;;;;18.79;100.00;100445.50;4970561;28;20220;-45
2023/07/12 00:27:39;;;;;;;6.25;3.60;;;;;;;18.70;100.00;100452.47;4970635;28;20604;-44
2023/07/12 00:30:34;;;;;;;7.10;3.72;;;;;;;18.74;100.00;100426.84;4974245;28;20197;-46
2023/07/12 00:33:03;;;;;;;5.35;2.78;;;;;;;18.84;100.00;100418.84;4968913;28;20284;-46
2023/07/12 00:35:30;;;;;;;5.30;3.38;;;;;;;18.84;100.00;100413.41;4967912;28;20587;-46
2023/07/12 00:37:58;;;;;;;8.52;3.58;;;;;;;18.81;100.00;100414.53;4972302;28;20200;-46
2023/07/12 00:40:49;;;;;;;8.73;3.53;;;;;;;18.83;100.00;100409.00;4968258;28;20276;-44
2023/07/12 00:43:24;;;;;;;6.65;3.33;;;;;;;18.87;100.00;100415.88;4969680;28;20237;-45
2023/07/12 00:45:51;;;;;;;7.40;3.40;;;;;;;18.85;100.00;100412.44;4963329;28;20668;-44
2023/07/12 00:48:17;;;;;;;6.50;3.30;;;;;;;18.73;100.00;100412.38;4968703;28;20170;-44
2023/07/12 00:50:43;;;;;;;6.40;3.00;;;;;;;18.91;100.00;100407.38;4969354;28;20964;-44
2023/07/12 00:53:17;;;;;;;6.78;3.17;;;;;;;19.04;100.00;100409.09;4971809;28;20192;-45
2023/07/12 00:55:57;;;;;;;7.03;2.70;;;;;;;19.18;100.00;100427.88;4971042;28;20232;-46
2023/07/12 00:58:25;;;;;;;6.70;2.90;;;;;;;19.19;100.00;100456.75;4970846;28;20200;-45
2023/07/12 01:00:52;;;;;;;5.28;2.83;;;;;;;19.23;100.00;100515.28;4970694;28;20248;-44
2023/07/12 01:03:21;;;;;;;10.38;4.43;;;;;;;18.90;100.00;100562.25;4969827;28;20192;-44
2023/07/12 01:05:47;;;;;;;8.30;3.95;;;;;;;18.50;100.00;100598.69;4967040;28;20304;-45
2023/07/12 01:08:14;;;;;;;9.27;3.22;;;;;;;18.52;100.00;100572.31;4965457;28;20188;-46
2023/07/12 01:10:40;;;;;;;11.82;2.80;;;;;;;18.65;100.00;100601.22;4970243;28;20214;-45
2023/07/12 01:13:07;;;;;;;12.73;3.28;;;;;;;18.89;100.00;100629.25;4970013;28;20666;-46
2023/07/12 01:15:34;;;;;;;16.52;3.42;;;;;;;18.64;100.00;100600.34;4969922;28;20240;-46
2023/07/12 01:18:03;;;;;;;19.45;4.43;;;;;;;18.42;100.00;100560.41;4961493;28;20205;-45
2023/07/12 01:20:38;;;;;;;25.45;6.15;;;;;;;18.04;100.00;100517.19;4968827;28;20660;-46
2023/07/12 01:23:04;;;;;;;26.17;5.72;;;;;;;18.02;100.00;100503.75;4968240;28;20181;-44
2023/07/12 01:25:43;;;;;;;21.15;4.78;;;;;;;17.89;100.00;100492.09;4969397;28;20263;-45
2023/07/12 01:28:10;;;;;;;15.68;3.33;;;;;;;17.89;100.00;100509.22;4970409;28;20190;-46
2023/07/12 01:30:37;;;;;;;12.48;3.35;;;;;;;18.03;100.00;100535.28;4969934;28;20217;-45
2023/07/12 01:33:03;;;;;;;10.90;3.83;;;;;;;17.87;100.00;100529.28;4968660;28;20493;-44
2023/07/12 01:35:30;;;;;;;6.82;3.30;;;;;;;17.79;100.00;100520.81;4968714;28;20201;-45
2023/07/12 01:37:56;;;;;;;7.68;3.50;;;;;;;17.65;100.00;100521.84;4970010;28;20690;-44
2023/07/12 01:40:21;;;;;;;11.98;3.92;;;;;;;17.54;100.00;100529.88;4971118;28;20209;-45
2023/07/12 01:42:47;;;;;;;8.07;3.20;;;;;;;17.67;100.00;100523.44;4967821;28;20178;-44
2023/07/12 01:45:13;;;;;;;7.13;2.80;;;;;;;17.64;100.00;100536.34;4969444;28;20848;-45
2023/07/12 01:47:40;;;;;;;4.88;2.55;;;;;;;17.77;100.00;100542.59;4968300;28;20182;-44
2023/07/12 01:50:06;;;;;;;4.50;2.10;;;;;;;17.72;100.00;100544.78;4968084;28;20202;-44
2023/07/12 01:52:32;;;;;;;5.97;2.50;;;;;;;17.74;100.00;100534.69;4968651;28;20178;-45
2023/07/12 01:54:57;;;;;;;4.63;2.67;;;;;;;17.84;100.00;100533.09;4967979;28;20322;-44
2023/07/12 01:57:23;;;;;;;6.00;2.80;;;;;;;17.76;100.00;100510.22;4969766;28;20387;-44
2023/07/12 01:59:49;;;;;;;6.90;3.25;;;;;;;17.67;100.00;100482.81;4984617;28;20265;-44
2023/07/12 02:02:14;;;;;;;4.93;2.83;;;;;;;17.83;100.00;100481.69;4967499;28;20217;-45
2023/07/12 02:04:40;;;;;;;7.55;2.60;;;;;;;17.85;100.00;100498.72;4969921;28;20715;-47
2023/07/12 02:07:05;;;;;;;6.13;2.50;;;;;;;17.56;100.00;100473.72;4973069;28;20190;-47
2023/07/12 02:09:39;;;;;;;2.97;1.98;;;;;;;17.57;100.00;100476.31;4971101;28;20304;-46
2023/07/12 02:12:05;;;;;;;9.35;2.40;;;;;;;17.43;100.00;100469.22;4974050;28;20232;-47
2023/07/12 02:14:36;;;;;;;6.55;1.75;;;;;;;17.25;100.00;100457.88;4971797;28;20229;-47
2023/07/12 02:17:02;;;;;;;4.97;1.80;;;;;;;17.23;100.00;100462.53;4966920;28;20224;-45
2023/07/12 02:19:28;;;;;;;4.13;1.45;;;;;;;17.40;100.00;100468.56;4968450;28;20652;-45
2023/07/12 02:21:53;;;;;;;4.85;1.40;;;;;;;17.52;100.00;100458.69;4983679;28;20197;-47
2023/07/12 02:24:18;;;;;;;4.88;1.30;;;;;;;17.35;100.00;100441.81;4968678;28;20210;-45
2023/07/12 02:26:44;;;;;;;1.70;1.60;;;;;;;17.08;100.00;100412.22;4968478;28;20190;-46
2023/07/12 02:29:11;;;;;;;3.05;1.48;;;;;;;17.02;100.00;100428.88;4968781;28;20198;-45
2023/07/12 02:31:36;;;;;;;3.80;1.50;;;;;;;17.11;100.00;100430.91;4971241;28;20708;-46
2023/07/12 02:34:02;;;;;;;5.13;1.15;;;;;;;17.38;100.00;100429.88;4972761;28;20186;-46
2023/07/12 02:36:28;;;;;;;2.15;1.52;;;;;;;17.28;100.00;100425.16;4970330;28;20269;-46
2023/07/12 02:38:53;;;;;;;1.45;1.25;;;;;;;17.38;100.00;100443.44;4973558;28;20285;-47
2023/07/12 02:41:19;;;;;;;4.25;1.50;;;;;;;17.45;100.00;100461.00;4972652;28;20185;-46
2023/07/12 02:43:46;;;;;;;2.53;1.35;;;;;;;17.25;100.00;100490.38;4972538;28;20189;-46
2023/07/12 02:46:12;;;;;;;3.10;1.67;;;;;;;17.15;100.00;100507.38;4972225;28;20214;-45
2023/07/12 02:48:38;;;;;;;5.43;1.80;;;;;;;17.17;100.00;100511.69;4972921;28;20308;-45
2023/07/12 02:51:03;;;;;;;3.95;1.63;;;;;;;17.19;100.00;100527.84;4971471;28;20649;-47
2023/07/12 02:53:29;;;;;;;3.70;1.80;;;;;;;17.14;100.00;100538.13;4972197;28;20189;-47
2023/07/12 02:55:55;;;;;;;3.90;1.90;;;;;;;17.10;100.00;100542.91;4972851;28;20301;-47
2023/07/12 02:58:21;;;;;;;2.42;1.63;;;;;;;16.99;100.00;100532.81;4970860;28;20277;-48
2023/07/12 03:00:47;;;;;;;6.68;2.03;;;;;;;16.95;100.00;100527.72;4970336;28;20181;-47
2023/07/12 03:03:13;;;;;;;7.57;2.30;;;;;;;16.97;100.00;100507.69;4970224;28;20271;-47
2023/07/12 03:05:39;;;;;;;5.40;2.00;;;;;;;16.93;100.00;100468.28;4972622;28;20209;-47
2023/07/12 03:08:06;;;;;;;3.42;1.83;;;;;;;17.05;100.00;100439.47;4973321;28;20656;-47
2023/07/12 03:10:35;;;;;;;5.00;2.10;;;;;;;16.98;100.00;100416.53;4971350;28;20220;-47
2023/07/12 03:13:01;;;;;;;3.13;1.85;;;;;;;17.03;100.00;100417.94;4969623;28;20681;-47
2023/07/12 03:15:26;;;;;;;4.95;2.42;;;;;;;17.01;100.00;100400.06;4975450;28;20258;-45
2023/07/12 03:17:52;;;;;;;5.47;2.15;;;;;;;17.01;100.00;100375.72;4971872;28;20292;-46
2023/07/12 03:20:17;;;;;;;6.88;2.38;;;;;;;16.98;100.00;100360.56;4972567;28;20246;-44
2023/07/12 03:22:43;;;;;;;5.82;2.22;;;;;;;16.84;100.00;100339.94;4971353;28;20265;-41
2023/07/12 03:25:08;;;;;;;4.78;2.03;;;;;;;16.87;100.00;100323.47;4971409;28;20282;-42
2023/07/12 03:27:34;;;;;;;5.72;2.22;;;;;;;16.97;100.00;100326.38;4969456;28;20213;-41
2023/07/12 03:29:59;;;;;;;4.85;2.35;;;;;;;16.88;100.00;100325.19;4970915;28;20727;-43
2023/07/12 03:32:25;;;;;;;4.63;1.85;;;;;;;17.02;100.00;100334.16;4970706;28;20241;-43
2023/07/12 03:34:50;;;;;;;3.78;1.88;;;;;;;17.13;100.00;100333.38;4970775;28;20265;-41
2023/07/12 03:37:16;;;;;;;3.28;2.00;;;;;;;17.17;100.00;100348.41;4972692;28;20384;-41
2023/07/12 03:39:41;;;;;;;3.50;1.85;;;;;;;17.16;100.00;100346.66;4970404;28;20178;-42
2023/07/12 03:42:07;;;;;;;2.22;1.90;;;;;;;17.05;100.00;100347.44;4968794;28;20194;-41
2023/07/12 03:44:32;;;;;;;3.60;2.10;;;;;;;17.22;100.00;100348.94;4970589;28;20212;-42
2023/07/12 03:46:58;;;;;;;5.60;1.70;;;;;;;17.11;100.00;100356.97;4971024;28;20194;-42
2023/07/12 03:49:23;;;;;;;6.57;2.28;;;;;;;17.02;100.00;100363.94;4970950;28;20244;-42
2023/07/12 03:51:49;;;;;;;5.28;2.33;;;;;;;16.87;100.00;100376.72;4969701;28;20522;-42
2023/07/12 03:54:14;;;;;;;3.80;1.95;;;;;;;16.85;100.00;100381.38;4968771;28;20197;-43
2023/07/12 03:56:40;;;;;;;6.30;2.20;;;;;;;16.94;100.00;100374.44;4971306;28;20197;-42
2023/07/12 03:59:06;;;;;;;3.10;1.95;;;;;;;16.85;100.00;100389.50;4969962;28;20264;-42
2023/07/12 04:01:32;;;;;;;4.63;2.20;;;;;;;16.95;100.00;100411.38;4969957;28;20285;-43
2023/07/12 04:03:57;;;;;;;5.18;2.33;;;;;;;17.07;100.00;100411.31;4968536;28;20711;-43
2023/07/12 04:06:23;;;;;;;4.65;2.22;;;;;;;17.19;100.00;100427.69;4969441;28;20637;-42
2023/07/12 04:08:48;;;;;;;2.38;2.17;;;;;;;17.17;100.00;100438.59;4968198;28;20178;-42
2023/07/12 04:11:28;;;;;;;3.33;2.25;;;;;;;17.23;100.00;100443.59;4971923;28;20463;-42
2023/07/12 04:13:54;;;;;;;5.07;2.67;;;;;;;17.20;100.00;100451.91;4968868;28;20188;-41
2023/07/12 04:16:21;;;;;;;5.32;2.20;;;;;;;17.19;100.00;100450.19;4972148;28;20209;-41
2023/07/12 04:18:47;;;;;;;3.58;2.15;;;;;;;17.27;100.00;100441.50;4967616;28;20209;-42
2023/07/12 04:21:13;;;;;;;5.85;2.10;;;;;;;17.23;100.00;100446.28;4968559;28;20256;-41
2023/07/12 04:23:38;;;;;;;3.42;1.88;;;;;;;17.29;100.00;100443.16;4968713;28;20253;-41
2023/07/12 04:26:05;;;;;;;4.68;2.50;;;;;;;17.28;100.00;100445.97;4969059;28;20647;-42
2023/07/12 04:28:33;;;;;;;5.70;2.33;;;;;;;17.28;100.00;100438.69;4971523;28;20309;-42
2023/07/12 04:31:03;;;;;;;4.15;2.20;;;;;;;17.38;100.00;100438.00;4969193;28;20214;-42
2023/07/12 04:33:29;;;;;;;4.60;2.50;;;;;;;17.29;100.00;100440.44;4969365;28;20193;-41
2023/07/12 04:35:54;;;;;;;3.92;2.13;;;;;;;17.22;100.00;100447.25;4968389;28;20206;-41
2023/07/12 04:38:20;;;;;;;5.53;2.40;;;;;;;17.21;100.00;100436.56;4969313;28;20296;-42
2023/07/12 04:40:55;;;;;;;4.18;2.28;;;;;;;17.08;100.00;100423.03;4971180;28;20617;-42
2023/07/12 04:43:21;;;;;;;4.72;2.65;;;;;;;17.14;100.00;100416.28;4970395;28;20177;-42
2023/07/12 04:45:47;;;;;;;5.53;2.70;;;;;;;17.08;100.00;100404.09;4970536;28;20197;-42
2023/07/12 04:48:12;;;;;;;5.68;2.60;;;;;;;17.03;100.00;100412.53;4969811;28;20220;-42
2023/07/12 04:50:37;;;;;;;8.95;2.38;;;;;;;17.11;100.00;100413.81;4969151;28;20206;-42
2023/07/12 04:53:03;;;;;;;5.93;2.72;;;;;;;17.14;100.00;100419.00;4971369;28;20207;-41
2023/07/12 04:55:29;;;;;;;2.58;1.90;;;;;;;17.26;100.00;100428.94;4970251;28;20216;-42
2023/07/12 04:57:55;;;;;;;2.58;2.30;;;;;;;17.25;100.00;100428.09;4984343;28;20285;-41
2023/07/12 05:00:23;;;;;;;4.88;2.45;;;;;;;17.28;100.00;100435.13;4972094;28;20344;-42
2023/07/12 05:02:50;;;;;;;5.20;2.38;;;;;;;17.34;100.00;100423.84;4969693;28;20193;-40
2023/07/12 05:05:15;;;;;;;3.10;2.30;;;;;;;17.30;100.00;100423.19;4968821;28;20217;-42
2023/07/12 05:07:41;;;;;;;4.57;2.65;;;;;;;17.25;100.00;100432.63;4968891;28;20178;-40
2023/07/12 05:10:08;;;;;;;4.15;2.10;;;;;;;17.32;100.00;100439.34;4971084;28;20513;-42
2023/07/12 05:12:35;;;;;;;4.35;2.60;;;;;;;17.39;100.00;100447.88;4969527;28;20186;-40
2023/07/12 05:15:05;;;;;;;2.95;2.13;;;;;;;17.34;100.00;100447.34;4969938;28;20202;-41
2023/07/12 05:17:31;;;;;;;3.85;2.05;;;;;;;17.47;100.00;100445.47;4968266;28;20285;-41
2023/07/12 05:19:56;;;;;;;2.63;2.17;;;;;;;17.47;100.00;100459.00;4968434;28;20340;-41
2023/07/12 05:22:22;;;;;;;2.95;2.13;;;;;;;17.49;100.00;100460.66;4969976;28;20186;-40
2023/07/12 05:24:48;;;;;;;2.22;1.80;;;;;;;17.55;100.00;100467.44;4973101;28;20201;-41
2023/07/12 05:27:13;;;;;;;3.80;2.22;;;;;;;17.46;100.00;100478.94;4971173;28;20633;-41
2023/07/12 05:29:39;;;;;;;4.75;2.53;;;;;;;17.24;100.00;100477.78;4967813;28;20209;-42
2023/07/12 05:32:05;;;;;;;6.20;2.70;;;;;;;17.35;100.00;100495.13;4965031;28;20186;-40
2023/07/12 05:34:30;;;;;;;3.63;2.47;;;;;;;17.40;100.00;100490.22;4965774;28;20283;-40
2023/07/12 05:36:56;;;;;;;5.28;2.58;;;;;;;17.39;100.00;100493.94;4969066;28;20418;-41
2023/07/12 05:39:21;;;;;;;3.85;2.50;;;;;;;17.43;100.00;100501.72;4968722;28;20237;-43
2023/07/12 05:41:47;;;;;;;5.57;2.95;;;;;;;17.51;100.00;100503.84;4969559;28;20204;-41
2023/07/12 05:44:12;;;;;;;6.45;3.15;;;;;;;17.42;100.00;100523.47;4968562;28;20287;-42
2023/07/12 05:46:38;;;;;;;6.25;3.10;;;;;;;17.48;100.00;100528.47;4968781;28;20595;-42
2023/07/12 05:49:03;;;;;;;7.45;3.30;;;;;;;17.39;100.00;100521.88;4969365;28;20192;-41
2023/07/12 05:51:29;;;;;;;6.82;2.80;;;;;;;17.34;100.00;100505.09;4970497;28;20178;-43
2023/07/12 05:53:54;;;;;;;4.15;2.70;;;;;;;17.50;100.00;100510.25;4968636;28;20530;-43
2023/07/12 05:56:20;;;;;;;3.50;2.58;;;;;;;17.55;100.00;100527.03;4968877;28;20205;-41
2023/07/12 05:58:45;;;;;;;4.93;3.05;;;;;;;17.46;100.00;100525.84;4967846;28;20174;-42
2023/07/12 06:01:11;;;;;;;3.38;2.38;;;;;;;17.56;100.00;100527.91;4969029;28;20182;-44
2023/07/12 06:03:37;;;;;;;4.10;3.10;;;;;;;17.49;100.00;100516.63;4969731;28;20216;-42
2023/07/12 06:06:06;;;;;;;6.93;2.95;;;;;;;17.48;100.00;100494.09;4972784;28;20221;-43
2023/07/12 06:08:32;;;;;;;3.00;2.30;;;;;;;17.61;100.00;100529.31;4972094;28;20190;-43
2023/07/12 06:10:57;;;;;;;4.75;2.95;;;;;;;17.61;100.00;100542.84;4972435;28;20214;-43
2023/07/12 06:13:23;;;;;;;4.05;2.92;;;;;;;17.45;100.00;100548.50;4971340;28;20228;-42
2023/07/12 06:15:48;;;;;;;6.30;3.10;;;;;;;17.37;100.00;100533.78;4971342;28;20296;-42
2023/07/12 06:18:14;;;;;;;7.13;2.78;;;;;;;17.32;100.00;100535.94;4972613;28;20185;-41
2023/07/12 06:20:39;;;;;;;6.30;3.00;;;;;;;17.44;100.00;100530.50;4973486;28;20618;-41
2023/07/12 06:23:05;;;;;;;7.15;2.92;;;;;;;17.49;100.00;100530.19;4975516;28;20182;-41
2023/07/12 06:25:31;;;;;;;6.55;3.28;;;;;;;17.50;100.00;100527.38;4973277;28;20271;-42
2023/07/12 06:27:56;;;;;;;5.65;3.38;;;;;;;17.45;100.00;100532.25;4968212;28;20194;-42
2023/07/12 06:30:22;;;;;;;5.53;2.88;;;;;;;17.53;100.00;100525.41;4970527;28;20656;-41
2023/07/12 06:32:47;;;;;;;6.38;3.30;;;;;;;17.58;100.00;100526.84;4972510;28;20217;-43
2023/07/12 06:35:13;;;;;;;6.63;3.28;;;;;;;17.58;100.00;100523.22;4973438;28;20226;-42
2023/07/12 06:37:39;;;;;;;6.45;3.60;;;;;;;17.51;100.00;100525.53;4972211;28;20174;-43
2023/07/12 06:40:05;;;;;;;5.13;3.17;;;;;;;17.53;100.00;100525.41;4971821;28;20174;-43
2023/07/12 06:42:32;;;;;;;4.78;3.10;;;;;;;17.48;100.00;100520.34;4969615;28;20252;-42
2023/07/12 06:44:57;;;;;;;3.88;3.00;;;;;;;17.57;100.00;100519.66;4972259;28;20202;-42
2023/07/12 06:47:23;;;;;;;6.75;3.20;;;;;;;17.59;100.00;100520.41;4971593;28;20598;-43
2023/07/12 06:49:48;;;;;;;6.90;3.20;;;;;;;17.49;100.00;100522.06;4972019;28;20216;-43
2023/07/12 06:52:14;;;;;;;6.90;3.55;;;;;;;17.44;100.00;100519.69;4971169;28;20558;-41
2023/07/12 06:54:39;;;;;;;7.50;3.70;;;;;;;17.49;100.00;100533.78;4971845;28;20850;-42
2023/07/12 06:57:05;;;;;;;5.63;3.60;;;;;;;17.53;100.00;100542.53;4972141;28;20178;-41
2023/07/12 06:59:31;;;;;;;5.85;3.80;;;;;;;17.57;100.00;100543.19;4973945;28;20600;-42
2023/07/12 07:01:56;;;;;;;5.38;4.35;;;;;;;17.71;100.00;100551.19;4974724;28;20205;-43
2023/07/12 07:04:22;;;;;;;6.30;4.82;;;;;;;17.71;100.00;100541.22;4971223;28;20214;-42
2023/07/12 07:06:47;;;;;;;4.65;4.25;;;;;;;17.83;100.00;100546.75;4971590;28;20182;-42
2023/07/12 07:09:13;;;;;;;8.23;6.10;;;;;;;17.67;100.00;100537.00;4969604;28;20265;-42
2023/07/12 07:11:39;;;;;;;7.57;6.07;;;;;;;17.79;100.00;100545.19;4972234;28;20204;-42
2023/07/12 07:14:04;;;;;;;7.57;6.25;;;;;;;17.71;100.00;100548.50;4971396;28;20181;-42
2023/07/12 07:16:30;;;;;;;9.30;6.82;;;;;;;17.71;100.00;100548.50;4984309;28;20199;-42
2023/07/12 07:18:56;;;;;;;7.25;6.53;;;;;;;17.82;100.00;100540.47;4970283;28;20180;-40
2023/07/12 07:21:21;;;;;;;11.75;7.07;;;;;;;17.86;100.00;100525.72;4972458;28;20185;-43
2023/07/12 07:23:47;;;;;;;7.40;6.55;;;;;;;18.11;100.00;100519.31;4969193;28;20221;-41
2023/07/12 07:26:13;;;;;;;8.25;6.82;;;;;;;18.21;100.00;100518.63;4973132;28;20585;-42
2023/07/12 07:28:39;;;;;;;8.55;7.60;;;;;;;18.46;100.00;100529.34;4969986;28;20174;-43
2023/07/12 07:31:06;;;;;;;8.93;8.00;;;;;;;18.69;100.00;100535.75;4974286;28;20272;-42
2023/07/12 07:33:32;;;;;;;9.95;8.95;;;;;;;18.71;100.00;100541.91;4971784;28;20189;-42
2023/07/12 07:35:57;;;;;;;9.00;8.20;;;;;;;18.76;100.00;100544.28;4971212;28;20537;-42
2023/07/12 07:38:26;;;;;;;8.32;7.47;;;;;;;18.79;100.00;100544.06;4971397;28;20280;-47
2023/07/12 07:41:06;;;;;;;8.38;6.72;;;;;;;18.68;100.00;100546.72;5008038;28;20307;-46
2023/07/12 07:43:32;;;;;;;9.25;7.15;;;;;;;18.48;100.00;100534.69;5000818;28;20199;-47
2023/07/12 07:45:57;;;;;;;10.20;7.65;;;;;;;18.52;100.00;100528.91;5010219;28;20255;-43
2023/07/12 07:48:23;;;;;;;7.85;7.00;;;;;;;18.45;100.00;100522.19;5006001;28;20189;-44
2023/07/12 07:50:48;;;;;;;7.28;6.57;;;;;;;18.60;100.00;100511.16;5006662;28;20266;-45
2023/07/12 07:53:14;;;;;;;7.63;6.90;;;;;;;18.67;100.00;100501.53;5010425;28;20222;-43
2023/07/12 07:55:44;;;;;;;9.35;7.10;;;;;;;18.60;100.00;100513.88;5005883;28;20678;-46
2023/07/12 07:58:11;;;;;;;7.47;5.78;;;;;;;18.73;100.00;100531.78;4999587;28;20190;-44
2023/07/12 08:00:37;;;;;;;7.10;5.97;;;;;;;18.62;100.00;100528.19;5007923;28;20256;-44
2023/07/12 08:03:04;;;;;;;6.55;5.75;;;;;;;18.50;100.00;100547.13;5010425;28;20191;-44
2023/07/12 08:05:29;;;;;;;5.95;5.45;;;;;;;18.48;100.00;100559.94;5000816;28;20192;-44
2023/07/12 08:07:55;;;;;;;7.72;5.68;;;;;;;18.31;100.00;100544.09;5010912;28;20169;-45
2023/07/12 08:10:20;;;;;;;5.82;5.15;;;;;;;18.35;100.00;100551.00;5002228;28;20576;-44
2023/07/12 08:12:47;;;;;;;7.10;5.50;;;;;;;18.36;100.00;100552.72;4999847;28;20548;-45
2023/07/12 08:15:13;;;;;;;6.88;6.00;;;;;;;18.17;100.00;100555.09;4991060;28;20388;-44
2023/07/12 08:17:39;;;;;;;7.03;5.97;;;;;;;18.24;100.00;100559.09;5010427;28;20730;-45
2023/07/12 08:20:07;;;;;;;8.05;5.50;;;;;;;18.37;100.00;100559.03;5010280;28;20272;-46
2023/07/12 08:22:32;;;;;;;8.15;5.53;;;;;;;18.56;100.00;100555.78;5009598;28;20196;-47
2023/07/12 08:24:57;;;;;;;5.38;4.88;;;;;;;18.98;100.00;100546.22;5009770;28;20203;-44
2023/07/12 08:27:23;;;;;;;4.30;3.90;;;;;;;18.78;100.00;100550.47;5006010;28;20775;-43
2023/07/12 08:29:48;;;;;;;8.88;3.70;;;;;;;18.82;100.00;100560.09;5007774;28;20196;-44
2023/07/12 08:32:14;;;;;;;6.55;3.65;;;;;;;19.03;100.00;100557.59;5008623;28;20180;-44
2023/07/12 08:34:40;;;;;;;7.65;3.10;;;;;;;18.81;100.00;100547.53;5003715;28;20197;-44
2023/07/12 08:37:05;;;;;;;5.82;3.20;;;;;;;18.72;100.00;100556.34;5004358;28;20507;-44
2023/07/12 08:39:31;;;;;;;4.90;3.13;;;;;;;19.12;100.00;100534.28;4996233;28;20281;-44
2023/07/12 08:41:58;;;;;;;4.63;3.35;;;;;;;20.02;100.00;100539.72;5002874;28;20612;-44
2023/07/12 08:44:25;;;;;;;4.82;2.88;;;;;;;20.06;100.00;100549.34;5008317;28;20215;-43
2023/07/12 08:46:56;;;;;;;4.82;2.80;;;;;;;19.92;100.00;100531.47;5007827;28;20306;-44
2023/07/12 08:49:24;;;;;;;5.75;2.90;;;;;;;19.67;100.00;100532.56;5004580;28;20544;-43
2023/07/12 08:51:51;;;;;;;4.65;2.40;;;;;;;19.45;100.00;100530.72;5003143;28;20192;-46
2023/07/12 08:54:22;;;;;;;10.48;3.83;;;;;;;19.56;100.00;100522.56;5005551;28;20172;-44
2023/07/12 08:56:49;;;;;;;7.53;2.97;;;;;;;20.11;100.00;100513.63;4997230;28;20842;-44
2023/07/12 08:59:16;;;;;;;5.40;2.83;;;;;;;20.20;100.00;100514.69;4999446;28;20393;-44
2023/07/12 09:01:46;;;;;;;6.78;2.75;;;;;;;20.15;100.00;100509.66;5005131;28;20200;-44
2023/07/12 09:04:22;;;;;;;9.23;3.00;;;;;;;19.87;100.00;100502.91;5001646;28;20180;-44
2023/07/12 09:06:50;;;;;;;8.07;2.90;;;;;;;19.75;100.00;100505.66;4992996;28;20647;-44
2023/07/12 09:09:17;;;;;;;7.03;2.90;;;;;;;19.90;100.00;100517.13;5006882;28;20202;-47
2023/07/12 09:11:43;;;;;;;5.40;2.72;;;;;;;20.47;100.00;100503.38;5004927;28;20604;-43
2023/07/12 09:14:15;;;;;;;8.15;2.97;;;;;;;21.24;100.00;100508.50;5002391;28;20259;-43
2023/07/12 09:16:41;;;;;;;8.02;3.13;;;;;;;20.78;100.00;100507.91;4993215;28;20168;-43
2023/07/12 09:19:25;;;;;;;8.00;2.88;;;;;;;21.15;100.00;100507.44;5007610;28;20188;-43
2023/07/12 09:21:56;;;;;;;7.53;2.38;;;;;;;21.53;100.00;100502.34;5001215;28;20282;-44
2023/07/12 09:24:24;;;;;;;9.27;2.83;;;;;;;21.30;100.00;100497.06;5008260;28;20187;-43
2023/07/12 09:26:51;;;;;;;6.65;2.70;;;;;;;20.94;100.00;100499.28;5000418;28;20184;-45
2023/07/12 09:29:24;;;;;;;7.18;2.83;;;;;;;20.73;100.00;100515.63;5004721;28;20607;-46
2023/07/12 09:31:51;;;;;;;9.77;3.38;;;;;;;20.17;100.00;100518.53;5005315;28;20187;-46
2023/07/12 09:34:34;;;;;;;8.13;3.30;;;;;;;20.54;100.00;100515.44;4997629;28;20173;-46
2023/07/12 09:37:00;;;;;;;10.23;2.85;;;;;;;20.53;100.00;100517.31;5002630;28;20180;-46
2023/07/12 09:39:26;;;;;;;10.30;3.25;;;;;;;20.56;100.00;100516.19;5005110;28;20179;-44
2023/07/12 09:42:01;;;;;;;11.20;3.88;;;;;;;20.77;100.00;100505.31;5003534;28;20199;-46
2023/07/12 09:44:27;;;;;;;10.15;2.80;;;;;;;20.64;100.00;100510.09;5006673;28;20284;-47
2023/07/12 09:46:55;;;;;;;6.47;2.97;;;;;;;20.78;100.00;100507.06;5007297;28;20274;-45
2023/07/12 09:49:42;;;;;;;10.45;3.10;;;;;;;20.62;100.00;100510.25;4998015;28;20180;-46
2023/07/12 09:52:31;;;;;;;10.38;3.33;;;;;;;20.70;100.00;100512.31;5006037;28;20194;-45
2023/07/12 09:55:09;;;;;;;9.20;3.22;;;;;;;20.60;100.00;100524.97;4999204;28;20204;-45
2023/07/12 09:57:56;;;;;;;11.27;3.13;;;;;;;20.78;100.00;100526.13;4997026;28;20198;-44
2023/07/12 10:00:22;;;;;;;7.50;2.67;;;;;;;21.66;98.69;100502.97;5001639;28;20181;-46
2023/07/12 10:03:18;;;;;;;10.93;3.05;;;;;;;21.81;94.27;100507.03;4999562;28;20203;-46
2023/07/12 10:05:55;;;;;;;12.63;3.17;;;;;;;20.76;93.21;100504.47;5002171;28;20231;-44
2023/07/12 10:08:23;;;;;;;9.68;3.42;;;;;;;20.64;95.50;100526.44;4994650;28;20599;-45
2023/07/12 10:10:58;;;;;;;10.95;3.47;;;;;;;19.76;100.00;100548.16;5007224;28;20578;-44
2023/07/12 10:13:48;;;;;;;9.90;3.25;;;;;;;20.13;100.00;100547.00;5005478;28;20184;-44
2023/07/12 10:16:24;;;;;;;10.65;3.40;;;;;;;20.49;100.00;100536.75;5007423;28;20211;-42
2023/07/12 10:18:50;;;;;;;7.53;2.80;;;;;;;20.82;100.00;100545.78;5000572;28;20160;-43
2023/07/12 10:21:25;;;;;;;9.07;3.13;;;;;;;21.15;100.00;100542.84;4997303;28;20204;-44
2023/07/12 10:24:01;;;;;;;10.73;3.45;;;;;;;21.48;100.00;100530.00;5004836;28;20264;-43
2023/07/12 10:26:27;;;;;;;12.23;3.80;;;;;;;22.18;100.00;100528.22;5006599;28;20196;-44
2023/07/12 10:29:05;;;;;;;11.95;3.30;;;;;;;21.93;100.00;100515.09;5007599;28;20276;-45
2023/07/12 10:31:44;;;;;;;9.63;3.10;;;;;;;21.66;99.73;100515.72;5001311;28;20196;-44
2023/07/12 10:34:28;;;;;;;9.13;2.90;;;;;;;21.73;97.97;100525.06;5003960;28;21024;-45
2023/07/12 10:36:57;;;;;;;6.72;2.75;;;;;;;21.43;96.38;100524.13;5006366;28;20211;-45
2023/07/12 10:39:27;;;;;;;12.38;3.33;;;;;;;21.97;94.69;100525.59;5006926;28;20257;-45
2023/07/12 10:42:00;;;;;;;13.90;3.50;;;;;;;22.22;94.60;100517.94;5002830;28;20196;-45
2023/07/12 10:44:37;;;;;;;10.55;3.08;;;;;;;22.37;91.81;100523.84;5001817;28;20201;-44
2023/07/12 10:47:09;;;;;;;8.38;3.67;;;;;;;21.63;89.01;100525.06;5004832;28;20262;-45
2023/07/12 10:49:58;;;;;;;11.18;3.47;;;;;;;21.67;90.26;100520.16;5005518;28;20204;-45
2023/07/12 10:52:31;;;;;;;13.88;3.60;;;;;;;21.13;91.06;100544.84;5007477;28;20674;-44
2023/07/12 10:55:02;;;;;;;11.35;3.35;;;;;;;20.92;91.24;100550.28;5011121;28;20548;-47
2023/07/12 10:57:44;;;;;;;10.77;3.03;;;;;;;21.15;93.34;100553.75;5008611;28;20266;-44
2023/07/12 11:00:09;;;;;;;7.50;3.05;;;;;;;21.43;92.50;100548.66;5010256;28;20238;-46
2023/07/12 11:02:47;;;;;;;5.47;2.53;;;;;;;21.52;88.82;100536.91;5010046;28;20180;-44
2023/07/12 11:05:38;;;;;;;9.25;2.78;;;;;;;21.74;84.71;100537.72;5010721;28;20223;-45
2023/07/12 11:08:04;;;;;;;4.50;2.15;;;;;;;22.30;83.42;100525.38;5010278;28;20551;-47
2023/07/12 11:10:35;;;;;;;5.93;2.53;;;;;;;22.58;81.67;100521.81;4999658;28;20217;-47
2023/07/12 11:13:12;;;;;;;12.55;2.70;;;;;;;23.06;80.08;100513.75;5015815;28;20168;-45
2023/07/12 11:15:58;;;;;;;6.28;2.42;;;;;;;23.32;79.12;100524.88;5008614;28;20212;-45
2023/07/12 11:18:29;;;;;;;6.07;2.50;;;;;;;22.62;77.79;100522.38;5007033;28;20255;-47
2023/07/12 11:20:59;;;;;;;7.03;2.70;;;;;;;22.48;77.53;100531.88;5009933;28;20176;-47